Pagrindinis puslapis
METAR-TAF:

METAR-TAF

Oro uostai :

Kuenka, Ekvadoras

platuma: 02-53-22S, ilguma: 078-59-04W, Aukštis: 2532 m

Dabartinis oras

Ataskaita buvo paskelbta 39 minutes, ne 16:00 UTC
Vėjas 7 kt iš Šiaurės Rytų
Temperatūra 19°C
Drėgmė 60%
Slėgis 1027 hPa
Matomumas 10 km arba daugiau
Išsisklaidę debesys ne aukštis 4000 ft

METAR: SECU 181600Z 05007KT 9999 SCT040 19/11 Q1027

Laikas: 11:39 (16:39 UTC)


TAF: trūkstamas

Orai ataskaitas ir orų prognozės (METAR, TAF).

turimą stotys yra geltonos ir raudonos taškus žemėlapyje.

Perkelti pele per norėdami pamatyti stoties vardą.

Tada spustelėkite, norėdami matyti oro stebėjimo ir prognozės.

Norėdami pakeisti žemėlapį: spustelėkite ant žalios mygtukų su juodo kryžiaus žemyn,; žalią mygtuką su brūkšneliu, jei norite nutolinti; arba žalių rodyklių gretimoms žemėlapius.


METAR-TAF: